X  Fechar Metar - Info de Aeroporto     LIPX Verona-Villafranca Valerio Catullo Airport
Temperatura
5°C Temperatura
5°C Ptº Orvalho
100% Humidade



Vento
8 KM/H
5 MPH
2 M/S
4 NÓS



20°
NNL
Condições Atuais

Nevoeiro Nevoeiro
Pressão 1005.76 (hPa) - 29.7 (inHg)
Visibilidade 0.2 (milha) - 0.3 (km)
Aeroporto
Código-Aeropoto LIPX

Localização: Verona-Villafranca Valerio Catullo Airport
Distância: 0 (km)

Metar:
LIPX 240750Z 02004KT 350V050 0300 R04/0500N FG BKN001 05/05 Q1006

Hora: 24-02-2024 07:50 CET